createdAt,value
2023-02-14T00:00:37.119Z,17.60
2023-02-14T00:01:37.125Z,17.20
2023-02-14T00:02:37.168Z,18.00
2023-02-14T00:03:37.114Z,15.90
2023-02-14T00:04:37.138Z,16.40
2023-02-14T00:05:37.073Z,16.40
2023-02-14T00:06:37.064Z,16.80
2023-02-14T00:07:37.049Z,14.90
2023-02-14T00:08:37.036Z,16.70
2023-02-14T00:09:37.034Z,18.00
2023-02-14T00:10:37.013Z,16.20
2023-02-14T00:11:37.006Z,16.90
2023-02-14T00:12:37.021Z,15.60
2023-02-14T00:13:36.975Z,16.10
2023-02-14T00:14:36.983Z,15.60
2023-02-14T00:15:36.978Z,15.20
2023-02-14T00:16:36.938Z,18.00
2023-02-14T00:17:36.933Z,17.90
2023-02-14T00:18:36.928Z,15.40
2023-02-14T00:19:36.937Z,15.90
2023-02-14T00:20:36.899Z,17.20
2023-02-14T00:21:36.933Z,15.30
2023-02-14T00:22:36.889Z,18.30
2023-02-14T00:23:36.883Z,18.00
2023-02-14T00:24:36.855Z,17.70
2023-02-14T00:25:36.845Z,21.00
2023-02-14T00:26:36.843Z,16.90
2023-02-14T00:27:36.841Z,16.90
2023-02-14T00:28:36.829Z,17.20
2023-02-14T00:29:36.824Z,16.60
2023-02-14T00:30:36.967Z,16.80
2023-02-14T00:31:36.987Z,16.30
2023-02-14T00:32:36.765Z,15.80
2023-02-14T00:33:36.770Z,15.60
2023-02-14T00:34:36.831Z,17.80
2023-02-14T00:35:36.770Z,15.00
2023-02-14T00:36:36.725Z,15.40
2023-02-14T00:37:36.729Z,17.50
2023-02-14T00:38:36.719Z,18.00
2023-02-14T00:39:36.711Z,16.40
2023-02-14T00:40:36.732Z,15.40
2023-02-14T00:41:36.687Z,16.30
2023-02-14T00:42:36.660Z,16.00
2023-02-14T00:43:43.792Z,16.30
2023-02-14T00:44:36.631Z,16.50
2023-02-14T00:45:36.678Z,14.80
2023-02-14T00:46:36.612Z,15.40
2023-02-14T00:47:36.602Z,16.90
2023-02-14T00:48:36.588Z,15.70
2023-02-14T00:49:36.599Z,17.80
2023-02-14T00:50:36.590Z,15.80
2023-02-14T00:51:36.581Z,17.60
2023-02-14T00:52:36.558Z,16.40
2023-02-14T00:53:36.549Z,15.60
2023-02-14T00:54:36.536Z,15.50
2023-02-14T00:55:36.524Z,17.00
2023-02-14T00:56:36.523Z,16.90
2023-02-14T00:57:36.502Z,17.00
2023-02-14T00:58:36.486Z,18.20
2023-02-14T00:59:36.480Z,17.20
2023-02-14T01:00:36.504Z,16.30
2023-02-14T01:01:36.458Z,16.30
2023-02-14T01:02:36.550Z,18.40
2023-02-14T01:03:36.424Z,16.60
2023-02-14T01:04:36.440Z,16.90
2023-02-14T01:05:36.405Z,14.60
2023-02-14T01:06:36.414Z,15.40
2023-02-14T01:07:36.413Z,16.80
2023-02-14T01:08:36.378Z,14.90
2023-02-14T01:09:36.358Z,15.90
2023-02-14T01:10:36.354Z,15.80
2023-02-14T01:11:36.348Z,16.80
2023-02-14T01:12:36.362Z,15.40
2023-02-14T01:13:36.354Z,16.90
2023-02-14T01:14:36.315Z,15.40
2023-02-14T01:15:36.676Z,17.90
2023-02-14T01:16:36.388Z,15.30
2023-02-14T01:17:36.275Z,16.50
2023-02-14T01:18:36.268Z,15.90
2023-02-14T01:19:36.276Z,15.50
2023-02-14T01:20:36.242Z,15.90
2023-02-14T01:21:36.256Z,17.10
2023-02-14T01:22:36.233Z,15.20
2023-02-14T01:23:36.288Z,15.00
2023-02-14T01:24:36.204Z,15.20
2023-02-14T01:25:36.187Z,15.70
2023-02-14T01:26:36.189Z,15.30
2023-02-14T01:27:36.197Z,14.50
2023-02-14T01:28:36.155Z,15.50
2023-02-14T01:29:36.165Z,15.60
2023-02-14T01:30:36.174Z,15.00
2023-02-14T01:31:36.298Z,17.10
2023-02-14T01:32:36.118Z,15.10
2023-02-14T01:33:36.106Z,16.10
2023-02-14T01:34:36.090Z,15.60
2023-02-14T01:35:36.096Z,15.80
2023-02-14T01:36:36.111Z,15.70
2023-02-14T01:37:36.068Z,16.60
2023-02-14T01:38:36.076Z,16.00
2023-02-14T01:39:36.075Z,18.20
2023-02-14T01:40:36.042Z,15.00
2023-02-14T01:41:36.045Z,15.50
2023-02-14T01:42:36.004Z,17.20
2023-02-14T01:43:36.004Z,15.10
2023-02-14T01:44:35.989Z,16.40
2023-02-14T01:45:35.996Z,16.60
2023-02-14T01:46:35.979Z,15.20
2023-02-14T01:47:35.969Z,16.50
2023-02-14T01:48:35.953Z,14.80
2023-02-14T01:49:35.929Z,15.60
2023-02-14T01:50:35.924Z,15.70
2023-02-14T01:51:35.928Z,17.70
2023-02-14T01:52:35.917Z,15.10
2023-02-14T01:53:35.911Z,15.10
2023-02-14T01:54:35.880Z,15.90
2023-02-14T01:55:35.903Z,16.30
2023-02-14T01:56:35.875Z,16.30
2023-02-14T01:57:35.880Z,14.80
2023-02-14T01:58:35.845Z,14.90
2023-02-14T01:59:35.835Z,15.50
2023-02-14T02:00:35.813Z,14.80
2023-02-14T02:01:35.840Z,15.90
2023-02-14T02:02:35.837Z,14.40
2023-02-14T02:03:35.799Z,14.60
2023-02-14T02:04:35.798Z,15.00
2023-02-14T02:05:35.768Z,16.70
2023-02-14T02:06:35.759Z,14.80
2023-02-14T02:07:35.734Z,16.00
2023-02-14T02:08:35.752Z,15.30
2023-02-14T02:09:35.755Z,15.50
2023-02-14T02:10:35.722Z,17.20
2023-02-14T02:11:35.713Z,15.90
2023-02-14T02:12:35.690Z,14.80
2023-02-14T02:13:35.680Z,15.30
2023-02-14T02:14:35.683Z,15.30
2023-02-14T02:15:35.646Z,14.00
2023-02-14T02:16:35.708Z,14.70
2023-02-14T02:17:35.636Z,15.60
2023-02-14T02:18:35.618Z,16.10
2023-02-14T02:19:35.639Z,14.50
2023-02-14T02:20:35.603Z,13.40
2023-02-14T02:21:35.596Z,13.70
2023-02-14T02:22:35.571Z,15.30
2023-02-14T02:23:35.566Z,14.50
2023-02-14T02:24:35.561Z,13.70
2023-02-14T02:25:35.542Z,14.30
2023-02-14T02:26:35.528Z,13.80
2023-02-14T02:27:35.545Z,16.90
2023-02-14T02:28:35.518Z,14.10
2023-02-14T02:29:35.522Z,14.00
2023-02-14T02:30:35.668Z,16.00
2023-02-14T02:31:35.636Z,15.60
2023-02-14T22:43:58.788Z,13.30
2023-02-14T22:44:58.744Z,11.60
2023-02-14T22:45:58.877Z,13.00
2023-02-14T22:46:58.731Z,12.30
2023-02-14T22:47:58.710Z,12.70
2023-02-14T22:48:58.714Z,14.40
2023-02-14T22:50:01.003Z,12.40
2023-02-14T22:50:58.698Z,12.80
2023-02-14T22:51:58.673Z,11.70
2023-02-14T22:52:58.663Z,12.60
2023-02-14T22:53:58.664Z,12.80
2023-02-14T22:54:58.648Z,13.80
2023-02-14T22:55:58.821Z,12.80
2023-02-14T22:56:58.629Z,12.20
2023-02-14T22:57:58.606Z,11.90
2023-02-14T22:58:58.607Z,12.90
2023-02-14T22:59:58.625Z,12.60
2023-02-14T23:00:58.581Z,11.30
2023-02-14T23:01:58.640Z,12.10
2023-02-14T23:02:58.595Z,11.30
2023-02-14T23:03:58.540Z,11.60
2023-02-14T23:04:58.537Z,12.10
2023-02-14T23:05:58.588Z,10.70
2023-02-14T23:06:58.512Z,12.00
2023-02-14T23:07:58.497Z,11.90
2023-02-14T23:08:58.489Z,12.20
2023-02-14T23:09:58.491Z,13.10
2023-02-14T23:10:58.460Z,12.10
2023-02-14T23:11:58.480Z,11.40
2023-02-14T23:12:58.433Z,11.60
2023-02-14T23:13:58.428Z,11.30
2023-02-14T23:14:58.437Z,12.10
2023-02-14T23:15:58.565Z,11.40
2023-02-14T23:16:58.441Z,12.30
2023-02-14T23:17:58.384Z,11.80
2023-02-14T23:18:58.383Z,10.70
2023-02-14T23:19:58.358Z,11.60
2023-02-14T23:20:58.344Z,11.70
2023-02-14T23:21:58.363Z,11.50
2023-02-14T23:22:58.342Z,11.50
2023-02-14T23:23:58.314Z,11.40
2023-02-14T23:24:58.358Z,10.70
2023-02-14T23:25:58.458Z,11.90
2023-02-14T23:26:58.309Z,11.50
2023-02-14T23:27:58.274Z,10.60
2023-02-14T23:28:58.378Z,11.90
2023-02-14T23:29:58.300Z,12.30
2023-02-14T23:30:58.270Z,10.40
2023-02-14T23:31:58.366Z,10.80
2023-02-14T23:32:58.228Z,10.00
2023-02-14T23:33:58.231Z,10.10
2023-02-14T23:34:58.191Z,12.60
2023-02-14T23:35:58.204Z,10.90
2023-02-14T23:36:58.184Z,11.20
2023-02-14T23:37:58.199Z,10.30
2023-02-14T23:38:58.161Z,10.80
2023-02-14T23:39:58.164Z,12.30
2023-02-14T23:40:58.147Z,11.30
2023-02-14T23:41:58.141Z,11.50
2023-02-14T23:42:58.119Z,10.80
2023-02-14T23:43:58.117Z,11.00
2023-02-14T23:44:58.092Z,10.30
2023-02-14T23:45:58.109Z,11.40
2023-02-14T23:46:58.064Z,12.50
2023-02-14T23:47:58.162Z,10.20
2023-02-14T23:48:58.046Z,11.50
2023-02-14T23:49:58.051Z,10.00
2023-02-14T23:50:58.034Z,10.20
2023-02-14T23:51:58.029Z,10.40
2023-02-14T23:52:58.031Z,10.80
2023-02-14T23:53:58.031Z,10.40
2023-02-14T23:54:57.996Z,10.50
2023-02-14T23:55:57.983Z,10.60
2023-02-14T23:56:57.988Z,9.70
2023-02-14T23:57:57.958Z,12.30
2023-02-14T23:58:57.958Z,11.10
2023-02-14T23:59:57.931Z,9.60
